sensor_id;sensor_type;location;lat;lon;timestamp;temperature;humidity
52030;DHT22;38043;53.224;6.580;2023-02-27T00:00:51;1.10;99.90
52030;DHT22;38043;53.224;6.580;2023-02-27T00:03:17;1.10;99.90
52030;DHT22;38043;53.224;6.580;2023-02-27T00:05:43;1.10;99.90
52030;DHT22;38043;53.224;6.580;2023-02-27T00:08:09;1.10;99.90
52030;DHT22;38043;53.224;6.580;2023-02-27T00:10:35;1.10;99.90
52030;DHT22;38043;53.224;6.580;2023-02-27T00:13:00;1.10;99.90
52030;DHT22;38043;53.224;6.580;2023-02-27T00:15:26;1.10;99.90
52030;DHT22;38043;53.224;6.580;2023-02-27T00:17:52;1.10;99.90
52030;DHT22;38043;53.224;6.580;2023-02-27T00:20:18;1.10;99.90
52030;DHT22;38043;53.224;6.580;2023-02-27T00:22:45;1.10;99.90
52030;DHT22;38043;53.224;6.580;2023-02-27T00:25:11;1.10;99.90
52030;DHT22;38043;53.224;6.580;2023-02-27T00:27:36;1.10;99.90
52030;DHT22;38043;53.224;6.580;2023-02-27T00:30:05;1.30;99.90
52030;DHT22;38043;53.224;6.580;2023-02-27T00:32:31;1.10;99.90
52030;DHT22;38043;53.224;6.580;2023-02-27T00:34:57;1.10;99.90
52030;DHT22;38043;53.224;6.580;2023-02-27T00:37:23;1.10;99.90
52030;DHT22;38043;53.224;6.580;2023-02-27T00:39:48;1.00;99.90
52030;DHT22;38043;53.224;6.580;2023-02-27T00:42:15;0.70;99.90
52030;DHT22;38043;53.224;6.580;2023-02-27T00:44:40;0.90;99.90
52030;DHT22;38043;53.224;6.580;2023-02-27T00:47:06;0.90;99.90
52030;DHT22;38043;53.224;6.580;2023-02-27T00:49:32;0.80;99.90
52030;DHT22;38043;53.224;6.580;2023-02-27T00:51:58;0.80;99.90
52030;DHT22;38043;53.224;6.580;2023-02-27T00:54:23;0.70;99.90
52030;DHT22;38043;53.224;6.580;2023-02-27T00:56:49;0.60;99.90
52030;DHT22;38043;53.224;6.580;2023-02-27T00:59:15;0.60;99.90
52030;DHT22;38043;53.224;6.580;2023-02-27T01:01:40;0.50;99.90
52030;DHT22;38043;53.224;6.580;2023-02-27T01:04:06;0.50;99.90
52030;DHT22;38043;53.224;6.580;2023-02-27T01:06:32;0.60;99.90
52030;DHT22;38043;53.224;6.580;2023-02-27T01:08:57;0.60;99.90
52030;DHT22;38043;53.224;6.580;2023-02-27T01:11:23;0.70;99.90
52030;DHT22;38043;53.224;6.580;2023-02-27T01:13:49;0.80;99.90
52030;DHT22;38043;53.224;6.580;2023-02-27T01:16:14;0.80;99.90
52030;DHT22;38043;53.224;6.580;2023-02-27T01:18:40;0.80;99.90
52030;DHT22;38043;53.224;6.580;2023-02-27T01:21:07;0.80;99.90
52030;DHT22;38043;53.224;6.580;2023-02-27T01:23:32;0.80;99.90
52030;DHT22;38043;53.224;6.580;2023-02-27T01:25:58;0.90;99.90
52030;DHT22;38043;53.224;6.580;2023-02-27T01:28:24;0.90;99.90
52030;DHT22;38043;53.224;6.580;2023-02-27T01:30:49;0.90;99.90
52030;DHT22;38043;53.224;6.580;2023-02-27T01:33:15;0.90;99.90
52030;DHT22;38043;53.224;6.580;2023-02-27T01:35:41;0.90;99.90
52030;DHT22;38043;53.224;6.580;2023-02-27T01:38:06;1.00;99.90
52030;DHT22;38043;53.224;6.580;2023-02-27T01:40:37;1.10;99.90
52030;DHT22;38043;53.224;6.580;2023-02-27T01:43:05;1.10;99.90
52030;DHT22;38043;53.224;6.580;2023-02-27T01:45:43;1.10;99.90
52030;DHT22;38043;53.224;6.580;2023-02-27T01:48:34;1.10;99.90
52030;DHT22;38043;53.224;6.580;2023-02-27T01:51:07;1.10;99.90
52030;DHT22;38043;53.224;6.580;2023-02-27T01:53:37;1.10;99.90
52030;DHT22;38043;53.224;6.580;2023-02-27T01:56:26;1.10;99.90
52030;DHT22;38043;53.224;6.580;2023-02-27T01:58:56;1.10;99.90
52030;DHT22;38043;53.224;6.580;2023-02-27T02:01:23;1.10;99.90
52030;DHT22;38043;53.224;6.580;2023-02-27T02:04:13;1.10;99.90
52030;DHT22;38043;53.224;6.580;2023-02-27T02:06:44;1.10;99.90
52030;DHT22;38043;53.224;6.580;2023-02-27T02:09:12;1.10;99.90
52030;DHT22;38043;53.224;6.580;2023-02-27T02:11:41;1.20;99.90
52030;DHT22;38043;53.224;6.580;2023-02-27T02:14:07;1.20;99.90
52030;DHT22;38043;53.224;6.580;2023-02-27T02:51:09;1.30;99.90
52030;DHT22;38043;53.224;6.580;2023-02-27T02:56:06;1.30;99.90
52030;DHT22;38043;53.224;6.580;2023-02-27T03:01:46;1.30;99.90
52030;DHT22;38043;53.224;6.580;2023-02-27T03:04:24;1.30;99.90
52030;DHT22;38043;53.224;6.580;2023-02-27T03:10:11;1.20;99.90
52030;DHT22;38043;53.224;6.580;2023-02-27T03:12:41;1.10;99.90
52030;DHT22;38043;53.224;6.580;2023-02-27T03:15:17;1.10;99.90
52030;DHT22;38043;53.224;6.580;2023-02-27T03:18:09;1.10;99.90
52030;DHT22;38043;53.224;6.580;2023-02-27T03:20:44;1.00;99.90
52030;DHT22;38043;53.224;6.580;2023-02-27T03:23:16;0.90;99.90
52030;DHT22;38043;53.224;6.580;2023-02-27T03:25:43;0.80;99.90
52030;DHT22;38043;53.224;6.580;2023-02-27T03:28:15;0.70;99.90
52030;DHT22;38043;53.224;6.580;2023-02-27T03:30:51;0.90;99.90
52030;DHT22;38043;53.224;6.580;2023-02-27T03:33:24;0.60;99.90
52030;DHT22;38043;53.224;6.580;2023-02-27T03:36:05;0.50;99.90
52030;DHT22;38043;53.224;6.580;2023-02-27T03:43:47;0.40;99.90
52030;DHT22;38043;53.224;6.580;2023-02-27T03:46:22;0.30;99.90
52030;DHT22;38043;53.224;6.580;2023-02-27T03:48:49;0.30;99.90
52030;DHT22;38043;53.224;6.580;2023-02-27T03:51:18;0.30;99.90
52030;DHT22;38043;53.224;6.580;2023-02-27T03:54:10;0.20;99.90
52030;DHT22;38043;53.224;6.580;2023-02-27T03:56:44;0.20;99.90
52030;DHT22;38043;53.224;6.580;2023-02-27T03:59:12;0.10;99.90
52030;DHT22;38043;53.224;6.580;2023-02-27T04:01:39;0.10;99.90
52030;DHT22;38043;53.224;6.580;2023-02-27T04:04:10;0.00;99.90
52030;DHT22;38043;53.224;6.580;2023-02-27T04:06:37;0.00;99.90
52030;DHT22;38043;53.224;6.580;2023-02-27T04:10:16;0.00;99.90
52030;DHT22;38043;53.224;6.580;2023-02-27T04:14:56;-0.10;99.90
52030;DHT22;38043;53.224;6.580;2023-02-27T04:17:25;-0.10;99.90
52030;DHT22;38043;53.224;6.580;2023-02-27T04:19:58;0.80;99.90
52030;DHT22;38043;53.224;6.580;2023-02-27T04:22:36;-0.10;99.90
52030;DHT22;38043;53.224;6.580;2023-02-27T04:30:44;-0.20;99.90
52030;DHT22;38043;53.224;6.580;2023-02-27T04:33:36;-0.20;99.90
52030;DHT22;38043;53.224;6.580;2023-02-27T04:39:16;-0.30;99.90
52030;DHT22;38043;53.224;6.580;2023-02-27T04:41:25;-0.30;99.90
52030;DHT22;38043;53.224;6.580;2023-02-27T04:43:52;-0.30;99.90
52030;DHT22;38043;53.224;6.580;2023-02-27T04:46:22;-0.40;99.90
52030;DHT22;38043;53.224;6.580;2023-02-27T04:48:55;-0.40;99.90
52030;DHT22;38043;53.224;6.580;2023-02-27T04:51:26;-0.40;99.90
52030;DHT22;38043;53.224;6.580;2023-02-27T04:54:09;-0.40;99.90
52030;DHT22;38043;53.224;6.580;2023-02-27T04:56:45;-0.30;99.90
52030;DHT22;38043;53.224;6.580;2023-02-27T04:59:18;-0.20;99.90
52030;DHT22;38043;53.224;6.580;2023-02-27T05:01:56;0.00;99.90
52030;DHT22;38043;53.224;6.580;2023-02-27T05:04:26;0.00;99.90
52030;DHT22;38043;53.224;6.580;2023-02-27T05:06:52;0.00;99.90
52030;DHT22;38043;53.224;6.580;2023-02-27T05:12:09;0.10;99.90
52030;DHT22;38043;53.224;6.580;2023-02-27T05:14:46;0.00;99.90
52030;DHT22;38043;53.224;6.580;2023-02-27T05:17:35;-0.10;99.90
52030;DHT22;38043;53.224;6.580;2023-02-27T05:20:02;-0.10;99.90
52030;DHT22;38043;53.224;6.580;2023-02-27T05:22:35;-0.10;99.90
52030;DHT22;38043;53.224;6.580;2023-02-27T05:25:34;-0.20;99.90
52030;DHT22;38043;53.224;6.580;2023-02-27T05:28:09;-0.20;99.90
52030;DHT22;38043;53.224;6.580;2023-02-27T05:31:48;-0.20;99.90
52030;DHT22;38043;53.224;6.580;2023-02-27T05:36:58;-0.20;99.90
52030;DHT22;38043;53.224;6.580;2023-02-27T05:39:27;-0.20;99.90
52030;DHT22;38043;53.224;6.580;2023-02-27T05:42:02;-0.20;99.90
52030;DHT22;38043;53.224;6.580;2023-02-27T05:44:33;-0.20;99.90
52030;DHT22;38043;53.224;6.580;2023-02-27T05:47:03;-0.30;99.90
52030;DHT22;38043;53.224;6.580;2023-02-27T05:49:37;-0.30;99.90
52030;DHT22;38043;53.224;6.580;2023-02-27T05:52:10;-0.30;99.90
52030;DHT22;38043;53.224;6.580;2023-02-27T05:55:07;-0.40;99.90
52030;DHT22;38043;53.224;6.580;2023-02-27T05:57:55;-0.40;99.90
52030;DHT22;38043;53.224;6.580;2023-02-27T06:00:52;-0.50;99.90
52030;DHT22;38043;53.224;6.580;2023-02-27T06:03:19;-0.50;99.90
52030;DHT22;38043;53.224;6.580;2023-02-27T06:05:45;-0.60;99.90
52030;DHT22;38043;53.224;6.580;2023-02-27T06:08:11;-0.60;99.90
52030;DHT22;38043;53.224;6.580;2023-02-27T06:10:37;-0.60;99.90
52030;DHT22;38043;53.224;6.580;2023-02-27T06:13:03;-0.70;99.90
52030;DHT22;38043;53.224;6.580;2023-02-27T06:15:29;-0.70;99.90
52030;DHT22;38043;53.224;6.580;2023-02-27T06:17:54;-0.70;99.90
52030;DHT22;38043;53.224;6.580;2023-02-27T06:20:21;-0.80;99.90
52030;DHT22;38043;53.224;6.580;2023-02-27T06:22:47;-0.80;99.90
52030;DHT22;38043;53.224;6.580;2023-02-27T06:25:12;-0.80;99.90
52030;DHT22;38043;53.224;6.580;2023-02-27T06:27:38;-0.80;99.90
52030;DHT22;38043;53.224;6.580;2023-02-27T06:30:05;-0.90;99.90
52030;DHT22;38043;53.224;6.580;2023-02-27T06:32:32;-0.90;99.90
52030;DHT22;38043;53.224;6.580;2023-02-27T06:34:58;-0.90;99.90
52030;DHT22;38043;53.224;6.580;2023-02-27T06:37:23;-0.90;99.90
52030;DHT22;38043;53.224;6.580;2023-02-27T06:39:49;-0.90;99.90
52030;DHT22;38043;53.224;6.580;2023-02-27T06:42:15;-0.90;99.90
52030;DHT22;38043;53.224;6.580;2023-02-27T06:44:41;-0.90;99.90
52030;DHT22;38043;53.224;6.580;2023-02-27T06:47:06;-0.90;99.90
52030;DHT22;38043;53.224;6.580;2023-02-27T06:49:32;-0.80;99.90
52030;DHT22;38043;53.224;6.580;2023-02-27T06:51:58;-0.80;99.90
52030;DHT22;38043;53.224;6.580;2023-02-27T06:54:23;-0.70;99.90
52030;DHT22;38043;53.224;6.580;2023-02-27T06:56:49;-0.70;99.90
52030;DHT22;38043;53.224;6.580;2023-02-27T06:59:16;-0.60;99.90
52030;DHT22;38043;53.224;6.580;2023-02-27T07:01:42;-0.50;99.90
52030;DHT22;38043;53.224;6.580;2023-02-27T07:04:12;-0.50;99.90
52030;DHT22;38043;53.224;6.580;2023-02-27T07:06:37;-0.40;99.90
52030;DHT22;38043;53.224;6.580;2023-02-27T07:09:03;-0.30;99.90
52030;DHT22;38043;53.224;6.580;2023-02-27T07:11:29;-0.20;99.90
52030;DHT22;38043;53.224;6.580;2023-02-27T07:13:55;-0.10;99.90
52030;DHT22;38043;53.224;6.580;2023-02-27T07:16:21;0.00;99.90
52030;DHT22;38043;53.224;6.580;2023-02-27T07:18:46;0.10;99.90
52030;DHT22;38043;53.224;6.580;2023-02-27T07:21:12;0.20;99.90
52030;DHT22;38043;53.224;6.580;2023-02-27T07:23:39;0.30;99.90
52030;DHT22;38043;53.224;6.580;2023-02-27T07:26:05;0.40;99.90
52030;DHT22;38043;53.224;6.580;2023-02-27T07:28:31;0.40;99.90
52030;DHT22;38043;53.224;6.580;2023-02-27T07:30:56;0.50;99.90
52030;DHT22;38043;53.224;6.580;2023-02-27T07:33:22;0.60;99.90
52030;DHT22;38043;53.224;6.580;2023-02-27T07:35:48;0.70;99.90
52030;DHT22;38043;53.224;6.580;2023-02-27T07:38:14;0.80;99.90
52030;DHT22;38043;53.224;6.580;2023-02-27T07:40:40;0.90;99.90
52030;DHT22;38043;53.224;6.580;2023-02-27T07:43:06;1.00;99.90
52030;DHT22;38043;53.224;6.580;2023-02-27T07:45:32;1.10;99.90
52030;DHT22;38043;53.224;6.580;2023-02-27T07:47:58;1.20;99.90
52030;DHT22;38043;53.224;6.580;2023-02-27T07:50:24;1.30;99.90
52030;DHT22;38043;53.224;6.580;2023-02-27T07:52:50;1.40;99.90
52030;DHT22;38043;53.224;6.580;2023-02-27T07:55:16;1.50;99.90
52030;DHT22;38043;53.224;6.580;2023-02-27T07:57:43;1.60;99.90
52030;DHT22;38043;53.224;6.580;2023-02-27T08:00:10;1.70;99.90
52030;DHT22;38043;53.224;6.580;2023-02-27T08:02:36;1.80;99.90
52030;DHT22;38043;53.224;6.580;2023-02-27T08:05:05;2.00;99.90
52030;DHT22;38043;53.224;6.580;2023-02-27T08:07:31;2.10;99.90
52030;DHT22;38043;53.224;6.580;2023-02-27T08:09:57;2.10;99.90
52030;DHT22;38043;53.224;6.580;2023-02-27T08:12:22;2.30;99.90
52030;DHT22;38043;53.224;6.580;2023-02-27T08:14:49;2.40;99.90
52030;DHT22;38043;53.224;6.580;2023-02-27T08:17:16;2.50;99.90
52030;DHT22;38043;53.224;6.580;2023-02-27T08:19:41;2.60;99.90
52030;DHT22;38043;53.224;6.580;2023-02-27T08:22:07;2.70;99.90
52030;DHT22;38043;53.224;6.580;2023-02-27T08:24:33;2.70;99.90
52030;DHT22;38043;53.224;6.580;2023-02-27T08:26:58;2.80;99.90
52030;DHT22;38043;53.224;6.580;2023-02-27T08:29:24;3.10;99.90
52030;DHT22;38043;53.224;6.580;2023-02-27T08:31:51;2.90;99.90
52030;DHT22;38043;53.224;6.580;2023-02-27T08:34:17;3.00;99.90
52030;DHT22;38043;53.224;6.580;2023-02-27T08:36:42;3.10;99.90
52030;DHT22;38043;53.224;6.580;2023-02-27T08:39:08;3.20;99.90
52030;DHT22;38043;53.224;6.580;2023-02-27T08:41:34;3.30;99.90
52030;DHT22;38043;53.224;6.580;2023-02-27T08:44:00;3.30;99.90
52030;DHT22;38043;53.224;6.580;2023-02-27T08:46:26;3.40;99.90
52030;DHT22;38043;53.224;6.580;2023-02-27T08:48:51;3.70;99.90
52030;DHT22;38043;53.224;6.580;2023-02-27T08:51:17;3.60;99.90
52030;DHT22;38043;53.224;6.580;2023-02-27T08:53:43;3.70;99.90
52030;DHT22;38043;53.224;6.580;2023-02-27T08:56:08;3.70;99.90
52030;DHT22;38043;53.224;6.580;2023-02-27T08:58:34;3.80;99.90
52030;DHT22;38043;53.224;6.580;2023-02-27T09:01:01;3.90;99.90
52030;DHT22;38043;53.224;6.580;2023-02-27T09:03:26;4.00;99.90
52030;DHT22;38043;53.224;6.580;2023-02-27T09:05:54;4.10;99.90
52030;DHT22;38043;53.224;6.580;2023-02-27T09:08:20;4.20;99.90
52030;DHT22;38043;53.224;6.580;2023-02-27T09:10:46;4.30;99.90
52030;DHT22;38043;53.224;6.580;2023-02-27T09:13:11;4.40;99.90
52030;DHT22;38043;53.224;6.580;2023-02-27T09:15:37;4.40;99.90
52030;DHT22;38043;53.224;6.580;2023-02-27T09:18:04;4.50;99.90
52030;DHT22;38043;53.224;6.580;2023-02-27T09:20:33;4.50;99.90
52030;DHT22;38043;53.224;6.580;2023-02-27T09:23:01;4.70;99.90
52030;DHT22;38043;53.224;6.580;2023-02-27T09:25:27;5.00;99.90
52030;DHT22;38043;53.224;6.580;2023-02-27T09:27:53;5.20;99.90
52030;DHT22;38043;53.224;6.580;2023-02-27T09:30:19;5.30;99.90
52030;DHT22;38043;53.224;6.580;2023-02-27T09:32:45;5.40;99.90
52030;DHT22;38043;53.224;6.580;2023-02-27T09:35:11;5.50;99.90
52030;DHT22;38043;53.224;6.580;2023-02-27T09:37:39;5.50;99.90
52030;DHT22;38043;53.224;6.580;2023-02-27T09:40:05;5.50;99.90
52030;DHT22;38043;53.224;6.580;2023-02-27T09:42:41;5.60;99.90
52030;DHT22;38043;53.224;6.580;2023-02-27T09:47:47;5.80;99.90
52030;DHT22;38043;53.224;6.580;2023-02-27T09:50:32;5.90;99.90
52030;DHT22;38043;53.224;6.580;2023-02-27T09:53:01;6.10;99.90
52030;DHT22;38043;53.224;6.580;2023-02-27T09:55:30;6.00;99.90
52030;DHT22;38043;53.224;6.580;2023-02-27T09:58:42;6.20;99.90
52030;DHT22;38043;53.224;6.580;2023-02-27T10:01:12;6.30;99.90
52030;DHT22;38043;53.224;6.580;2023-02-27T10:14:33;6.70;99.90
52030;DHT22;38043;53.224;6.580;2023-02-27T10:17:04;6.90;99.90
52030;DHT22;38043;53.224;6.580;2023-02-27T10:19:33;7.10;99.90
52030;DHT22;38043;53.224;6.580;2023-02-27T10:22:04;7.50;99.90
52030;DHT22;38043;53.224;6.580;2023-02-27T10:24:37;8.00;99.90
52030;DHT22;38043;53.224;6.580;2023-02-27T10:27:05;8.00;99.90
52030;DHT22;38043;53.224;6.580;2023-02-27T10:29:38;8.00;99.90
52030;DHT22;38043;53.224;6.580;2023-02-27T10:34:43;7.00;99.90
52030;DHT22;38043;53.224;6.580;2023-02-27T10:37:14;6.70;99.90
52030;DHT22;38043;53.224;6.580;2023-02-27T10:39:49;6.50;99.90
52030;DHT22;38043;53.224;6.580;2023-02-27T10:42:16;6.60;99.90
52030;DHT22;38043;53.224;6.580;2023-02-27T10:44:42;6.50;99.90
52030;DHT22;38043;53.224;6.580;2023-02-27T10:47:13;6.50;99.90
52030;DHT22;38043;53.224;6.580;2023-02-27T10:49:40;6.50;99.90
52030;DHT22;38043;53.224;6.580;2023-02-27T10:52:15;6.60;99.90
52030;DHT22;38043;53.224;6.580;2023-02-27T10:54:41;6.70;99.90
52030;DHT22;38043;53.224;6.580;2023-02-27T10:59:57;7.10;99.90
52030;DHT22;38043;53.224;6.580;2023-02-27T11:02:35;7.40;99.90
52030;DHT22;38043;53.224;6.580;2023-02-27T11:05:01;7.40;99.90
52030;DHT22;38043;53.224;6.580;2023-02-27T11:10:01;7.40;99.90
52030;DHT22;38043;53.224;6.580;2023-02-27T11:12:32;7.80;99.90
52030;DHT22;38043;53.224;6.580;2023-02-27T11:15:01;8.40;99.90
52030;DHT22;38043;53.224;6.580;2023-02-27T11:17:32;8.80;99.00
52030;DHT22;38043;53.224;6.580;2023-02-27T11:20:00;9.30;98.90
52030;DHT22;38043;53.224;6.580;2023-02-27T11:22:30;9.50;96.80
52030;DHT22;38043;53.224;6.580;2023-02-27T11:25:16;9.40;95.10
52030;DHT22;38043;53.224;6.580;2023-02-27T11:27:42;9.40;95.40
52030;DHT22;38043;53.224;6.580;2023-02-27T11:30:22;10.20;94.40
52030;DHT22;38043;53.224;6.580;2023-02-27T11:32:51;9.80;94.40
52030;DHT22;38043;53.224;6.580;2023-02-27T11:35:36;9.80;93.80
52030;DHT22;38043;53.224;6.580;2023-02-27T11:38:05;10.10;92.40
52030;DHT22;38043;53.224;6.580;2023-02-27T11:40:35;10.00;91.30
52030;DHT22;38043;53.224;6.580;2023-02-27T11:43:14;10.20;92.10
52030;DHT22;38043;53.224;6.580;2023-02-27T11:45:40;10.40;92.10
52030;DHT22;38043;53.224;6.580;2023-02-27T11:48:19;10.40;91.70
52030;DHT22;38043;53.224;6.580;2023-02-27T11:56:21;10.30;89.70
52030;DHT22;38043;53.224;6.580;2023-02-27T12:01:42;9.10;91.70
52030;DHT22;38043;53.224;6.580;2023-02-27T12:04:18;8.50;92.90
52030;DHT22;38043;53.224;6.580;2023-02-27T12:07:00;8.20;94.00
52030;DHT22;38043;53.224;6.580;2023-02-27T12:09:42;7.90;93.80
52030;DHT22;38043;53.224;6.580;2023-02-27T12:12:15;7.80;94.60
52030;DHT22;38043;53.224;6.580;2023-02-27T12:15:13;7.60;94.00
52030;DHT22;38043;53.224;6.580;2023-02-27T12:17:46;7.70;94.00
52030;DHT22;38043;53.224;6.580;2023-02-27T12:20:26;7.60;93.40
52030;DHT22;38043;53.224;6.580;2023-02-27T12:22:53;8.00;93.40
52030;DHT22;38043;53.224;6.580;2023-02-27T12:28:30;7.70;94.20
52030;DHT22;38043;53.224;6.580;2023-02-27T12:33:37;7.70;94.90
52030;DHT22;38043;53.224;6.580;2023-02-27T12:36:09;7.50;93.90
52030;DHT22;38043;53.224;6.580;2023-02-27T12:38:36;7.30;93.70
52030;DHT22;38043;53.224;6.580;2023-02-27T12:46:45;7.30;95.10
52030;DHT22;38043;53.224;6.580;2023-02-27T12:49:43;7.40;94.80
52030;DHT22;38043;53.224;6.580;2023-02-27T13:00:44;7.30;95.50
52030;DHT22;38043;53.224;6.580;2023-02-27T13:03:20;7.30;96.80
52030;DHT22;38043;53.224;6.580;2023-02-27T13:05:59;7.30;97.60
52030;DHT22;38043;53.224;6.580;2023-02-27T13:11:22;7.40;97.60
52030;DHT22;38043;53.224;6.580;2023-02-27T13:16:52;7.10;98.20
52030;DHT22;38043;53.224;6.580;2023-02-27T13:19:33;7.00;98.70
52030;DHT22;38043;53.224;6.580;2023-02-27T13:24:50;6.80;98.60
52030;DHT22;38043;53.224;6.580;2023-02-27T13:27:46;6.70;98.60
52030;DHT22;38043;53.224;6.580;2023-02-27T13:30:33;6.70;97.90
52030;DHT22;38043;53.224;6.580;2023-02-27T13:33:17;6.60;98.20
52030;DHT22;38043;53.224;6.580;2023-02-27T13:36:02;6.70;99.30
52030;DHT22;38043;53.224;6.580;2023-02-27T13:38:49;6.70;98.90
52030;DHT22;38043;53.224;6.580;2023-02-27T13:41:36;6.70;99.20
52030;DHT22;38043;53.224;6.580;2023-02-27T13:46:43;6.70;98.20
52030;DHT22;38043;53.224;6.580;2023-02-27T13:49:29;6.70;98.60
52030;DHT22;38043;53.224;6.580;2023-02-27T13:52:06;6.60;98.80
52030;DHT22;38043;53.224;6.580;2023-02-27T13:54:38;6.60;99.70
52030;DHT22;38043;53.224;6.580;2023-02-27T13:59:38;6.60;99.90
52030;DHT22;38043;53.224;6.580;2023-02-27T14:04:49;6.50;99.70
52030;DHT22;38043;53.224;6.580;2023-02-27T14:07:18;6.60;99.90
52030;DHT22;38043;53.224;6.580;2023-02-27T14:09:47;6.60;99.90
52030;DHT22;38043;53.224;6.580;2023-02-27T14:12:28;6.50;99.90
52030;DHT22;38043;53.224;6.580;2023-02-27T14:14:54;6.50;99.90
52030;DHT22;38043;53.224;6.580;2023-02-27T14:25:34;6.60;99.90
52030;DHT22;38043;53.224;6.580;2023-02-27T14:28:01;6.60;99.90
52030;DHT22;38043;53.224;6.580;2023-02-27T14:30:38;6.60;99.90
52030;DHT22;38043;53.224;6.580;2023-02-27T14:35:35;6.70;99.90
52030;DHT22;38043;53.224;6.580;2023-02-27T14:38:08;6.80;99.90
52030;DHT22;38043;53.224;6.580;2023-02-27T14:40:39;6.80;99.90
52030;DHT22;38043;53.224;6.580;2023-02-27T14:43:17;7.00;99.90
52030;DHT22;38043;53.224;6.580;2023-02-27T14:45:48;7.00;99.90
52030;DHT22;38043;53.224;6.580;2023-02-27T14:48:21;6.90;99.90
52030;DHT22;38043;53.224;6.580;2023-02-27T14:50:52;6.90;99.90
52030;DHT22;38043;53.224;6.580;2023-02-27T14:53:21;7.00;99.90
52030;DHT22;38043;53.224;6.580;2023-02-27T14:55:54;7.00;99.90
52030;DHT22;38043;53.224;6.580;2023-02-27T14:58:21;7.00;99.90
52030;DHT22;38043;53.224;6.580;2023-02-27T15:03:23;7.00;99.90
52030;DHT22;38043;53.224;6.580;2023-02-27T15:05:51;6.90;99.90
52030;DHT22;38043;53.224;6.580;2023-02-27T15:08:26;7.00;99.90
52030;DHT22;38043;53.224;6.580;2023-02-27T15:10:53;6.90;99.90
52030;DHT22;38043;53.224;6.580;2023-02-27T15:13:31;6.90;99.90
52030;DHT22;38043;53.224;6.580;2023-02-27T15:19:01;6.90;99.90
52030;DHT22;38043;53.224;6.580;2023-02-27T15:21:30;6.90;99.90
52030;DHT22;38043;53.224;6.580;2023-02-27T15:24:03;7.00;99.90
52030;DHT22;38043;53.224;6.580;2023-02-27T15:26:36;6.90;99.90
52030;DHT22;38043;53.224;6.580;2023-02-27T15:29:03;6.80;99.90
52030;DHT22;38043;53.224;6.580;2023-02-27T15:31:29;6.80;99.90
52030;DHT22;38043;53.224;6.580;2023-02-27T15:33:58;6.80;99.90
52030;DHT22;38043;53.224;6.580;2023-02-27T15:36:26;6.70;99.90
52030;DHT22;38043;53.224;6.580;2023-02-27T15:41:37;6.70;99.90
52030;DHT22;38043;53.224;6.580;2023-02-27T15:44:03;6.60;99.90
52030;DHT22;38043;53.224;6.580;2023-02-27T15:46:30;6.60;99.90
52030;DHT22;38043;53.224;6.580;2023-02-27T15:48:56;6.60;99.90
52030;DHT22;38043;53.224;6.580;2023-02-27T15:51:24;6.50;99.90
52030;DHT22;38043;53.224;6.580;2023-02-27T15:53:53;6.50;99.90
52030;DHT22;38043;53.224;6.580;2023-02-27T15:56:24;6.40;99.90
52030;DHT22;38043;53.224;6.580;2023-02-27T15:58:52;6.50;99.90
52030;DHT22;38043;53.224;6.580;2023-02-27T16:01:24;6.30;99.90
52030;DHT22;38043;53.224;6.580;2023-02-27T16:03:59;6.30;99.90
52030;DHT22;38043;53.224;6.580;2023-02-27T16:06:32;6.30;99.90
52030;DHT22;38043;53.224;6.580;2023-02-27T16:09:04;6.30;99.90
52030;DHT22;38043;53.224;6.580;2023-02-27T16:11:35;6.20;99.90
52030;DHT22;38043;53.224;6.580;2023-02-27T16:14:02;6.20;99.90
52030;DHT22;38043;53.224;6.580;2023-02-27T16:16:36;6.10;99.90
52030;DHT22;38043;53.224;6.580;2023-02-27T16:19:23;6.20;99.90
52030;DHT22;38043;53.224;6.580;2023-02-27T16:22:12;6.20;99.90
52030;DHT22;38043;53.224;6.580;2023-02-27T16:24:39;6.10;99.90
52030;DHT22;38043;53.224;6.580;2023-02-27T16:27:06;6.10;99.90
52030;DHT22;38043;53.224;6.580;2023-02-27T16:29:42;6.10;99.90
52030;DHT22;38043;53.224;6.580;2023-02-27T16:32:39;6.00;99.90
52030;DHT22;38043;53.224;6.580;2023-02-27T16:35:20;6.00;99.90
52030;DHT22;38043;53.224;6.580;2023-02-27T16:37:46;6.00;99.90
52030;DHT22;38043;53.224;6.580;2023-02-27T16:40:18;5.90;99.90
52030;DHT22;38043;53.224;6.580;2023-02-27T16:42:44;5.80;99.90
52030;DHT22;38043;53.224;6.580;2023-02-27T16:45:29;5.90;99.90
52030;DHT22;38043;53.224;6.580;2023-02-27T16:47:58;5.80;99.90
52030;DHT22;38043;53.224;6.580;2023-02-27T16:50:25;5.70;99.90
52030;DHT22;38043;53.224;6.580;2023-02-27T16:52:52;5.70;99.90
52030;DHT22;38043;53.224;6.580;2023-02-27T16:55:19;5.60;99.90
52030;DHT22;38043;53.224;6.580;2023-02-27T16:57:44;5.70;99.90
52030;DHT22;38043;53.224;6.580;2023-02-27T17:00:15;5.60;99.90
52030;DHT22;38043;53.224;6.580;2023-02-27T17:02:41;5.60;99.90
52030;DHT22;38043;53.224;6.580;2023-02-27T17:05:08;5.50;99.90
52030;DHT22;38043;53.224;6.580;2023-02-27T17:07:34;5.50;99.90
52030;DHT22;38043;53.224;6.580;2023-02-27T17:10:00;5.40;99.90
52030;DHT22;38043;53.224;6.580;2023-02-27T17:12:26;5.30;99.90
52030;DHT22;38043;53.224;6.580;2023-02-27T17:14:51;5.40;99.90
52030;DHT22;38043;53.224;6.580;2023-02-27T17:17:17;5.30;99.90
52030;DHT22;38043;53.224;6.580;2023-02-27T17:19:43;5.30;99.90
52030;DHT22;38043;53.224;6.580;2023-02-27T17:22:09;5.30;99.90
52030;DHT22;38043;53.224;6.580;2023-02-27T17:24:36;5.20;99.90
52030;DHT22;38043;53.224;6.580;2023-02-27T17:27:02;5.20;99.90
52030;DHT22;38043;53.224;6.580;2023-02-27T17:29:27;5.20;99.90
52030;DHT22;38043;53.224;6.580;2023-02-27T17:31:53;5.20;99.90
52030;DHT22;38043;53.224;6.580;2023-02-27T17:34:19;5.20;99.90
52030;DHT22;38043;53.224;6.580;2023-02-27T17:36:44;5.10;99.90
52030;DHT22;38043;53.224;6.580;2023-02-27T17:39:11;5.10;99.90
52030;DHT22;38043;53.224;6.580;2023-02-27T17:41:39;5.10;99.90
52030;DHT22;38043;53.224;6.580;2023-02-27T17:44:05;5.00;99.90
52030;DHT22;38043;53.224;6.580;2023-02-27T17:46:31;5.00;99.90
52030;DHT22;38043;53.224;6.580;2023-02-27T17:48:57;5.00;99.90
52030;DHT22;38043;53.224;6.580;2023-02-27T17:51:26;5.00;99.90
52030;DHT22;38043;53.224;6.580;2023-02-27T17:53:52;5.00;99.90
52030;DHT22;38043;53.224;6.580;2023-02-27T17:56:18;4.90;99.90
52030;DHT22;38043;53.224;6.580;2023-02-27T17:58:44;4.90;99.90
52030;DHT22;38043;53.224;6.580;2023-02-27T18:01:12;4.90;99.90
52030;DHT22;38043;53.224;6.580;2023-02-27T18:03:39;4.90;99.90
52030;DHT22;38043;53.224;6.580;2023-02-27T18:06:05;4.80;99.90
52030;DHT22;38043;53.224;6.580;2023-02-27T18:08:32;4.80;99.90
52030;DHT22;38043;53.224;6.580;2023-02-27T18:10:59;4.80;99.90
52030;DHT22;38043;53.224;6.580;2023-02-27T18:13:25;4.80;99.90
52030;DHT22;38043;53.224;6.580;2023-02-27T18:15:52;4.80;99.90
52030;DHT22;38043;53.224;6.580;2023-02-27T18:18:18;4.80;99.90
52030;DHT22;38043;53.224;6.580;2023-02-27T18:20:44;4.80;99.90
52030;DHT22;38043;53.224;6.580;2023-02-27T18:23:10;4.70;99.90
52030;DHT22;38043;53.224;6.580;2023-02-27T18:25:36;4.70;99.90
52030;DHT22;38043;53.224;6.580;2023-02-27T18:28:03;4.60;99.90
52030;DHT22;38043;53.224;6.580;2023-02-27T18:30:30;4.60;99.90
52030;DHT22;38043;53.224;6.580;2023-02-27T18:32:58;4.60;99.90